LiveATC.Net - Listen to live air traffic control over the Internet!


ICAO: YGTH  IATA: GFF   Airport: Griffith Airport
City: Griffith   State/Province: New South Wales
Country: Australia   Continent: Oceania
YGTH METAR Weather: YGTH 251200Z AUTO 00000KT 9999 // NCD 15/12 Q1020
YGTH Flight Activity (FlightAware)

YGTH AWIS
Feed Status: DOWN
Last heard on: 2019-04-07 22:51:02 (17 days 14 hours 4 minutes ago)
YGTH AWIS Audio Archives
FacilityFrequency
Griffith AWIS Weather132.950

YGTH CTAF
Feed Status: DOWN
Last heard on: 2019-04-07 22:51:02 (17 days 14 hours 4 minutes ago)
YGTH CTAF Audio Archives
FacilityFrequency
Griffith CTAF126.550

NOTICE

Unauthorized use prohibited. See LiveATC.net Terms of Service


Find LiveATC Audio Streams


Airport/ARTCC Code

Frequency Search
(e.g., 124.400, 128.75)
Site-wide search
 


Browse LiveATC Feeds
Top 50 LiveATC Feeds
LiveATC Feed Map
Bad Weather Areas

LiveATC FAQ
Offer LiveATC feed
Contact LiveATC.net
Press Inquiries

LiveATC on iPhone
LiveATC on Android

Windows Phone
Windows 8/10

LiveATC Mobile
(Mobile browser)

ATC Audio Archives
Interesting Recordings

LiveATC Forums


Home Page
About LiveATC.net
Make a Donation
Terms of Use
Privacy Policy

Canadian Air Freqs

AIRMETs/SIGMETs

FAA Airport Status
Nat'l Airspace Status
Arrival Demand Charts


Server Software By:
Icecast.org
Liquidsoap